createdAt,value
2022-08-05T00:02:27.806Z,9.45
2022-08-05T00:04:56.262Z,7.75
2022-08-05T00:07:59.330Z,10.18
2022-08-05T00:10:10.824Z,9.18
2022-08-05T00:12:56.101Z,8.30
2022-08-05T00:15:54.969Z,10.48
2022-08-05T00:18:21.431Z,11.35
2022-08-05T00:20:50.025Z,7.53
2022-08-05T00:23:17.304Z,9.68
2022-08-05T00:26:04.700Z,7.13
2022-08-05T00:28:31.669Z,8.50
2022-08-05T00:31:04.101Z,9.68
2022-08-05T00:34:54.153Z,8.18
2022-08-05T00:37:13.257Z,10.32
2022-08-05T00:39:13.938Z,8.95
2022-08-05T00:41:52.116Z,6.32
2022-08-05T00:44:23.293Z,6.07
2022-08-05T00:47:02.150Z,8.05
2022-08-05T00:49:32.570Z,12.18
2022-08-05T00:52:00.415Z,8.43
2022-08-05T00:54:28.070Z,7.50
2022-08-05T00:59:23.980Z,9.27
2022-08-05T01:01:52.017Z,9.18
2022-08-05T01:04:20.302Z,7.82
2022-08-05T01:06:53.740Z,7.63
2022-08-05T01:09:22.307Z,11.38
2022-08-05T01:11:52.005Z,8.82
2022-08-05T01:14:41.545Z,12.18
2022-08-05T01:17:14.060Z,9.20
2022-08-05T01:20:01.378Z,10.85
2022-08-05T01:22:42.936Z,8.98
2022-08-05T01:25:40.457Z,9.18
2022-08-05T01:30:50.655Z,8.90
2022-08-05T01:33:26.201Z,9.25
2022-08-05T01:35:55.452Z,7.82
2022-08-05T01:38:29.915Z,8.43
2022-08-05T01:41:01.497Z,8.68
2022-08-05T01:43:29.678Z,10.98
2022-08-05T01:45:58.329Z,9.52
2022-08-05T01:48:36.385Z,9.77
2022-08-05T01:51:12.032Z,11.88
2022-08-05T01:53:57.230Z,8.27
2022-08-05T01:58:13.190Z,10.68
2022-08-05T01:59:19.792Z,7.85
2022-08-05T02:01:48.077Z,7.75
2022-08-05T02:04:18.204Z,13.70
2022-08-05T02:06:45.217Z,6.88
2022-08-05T02:09:12.224Z,6.55
2022-08-05T02:11:52.516Z,9.25
2022-08-05T02:14:31.949Z,7.50
2022-08-05T02:17:06.657Z,9.23
2022-08-05T02:19:42.718Z,7.60
2022-08-05T02:22:26.661Z,8.43
2022-08-05T02:25:03.430Z,9.15
2022-08-05T02:27:58.405Z,9.48
2022-08-05T02:30:21.594Z,6.88
2022-08-05T02:32:54.123Z,9.02
2022-08-05T02:35:28.295Z,6.80
2022-08-05T02:38:02.282Z,9.20
2022-08-05T02:40:30.037Z,9.70
2022-08-05T02:42:58.985Z,7.95
2022-08-05T02:45:28.546Z,9.13
2022-08-05T02:48:15.950Z,9.68
2022-08-05T02:50:47.393Z,9.40
2022-08-05T02:53:18.719Z,9.05
2022-08-05T02:55:54.093Z,8.00
2022-08-05T02:58:27.341Z,8.13
2022-08-05T03:00:56.536Z,8.93
2022-08-05T03:03:23.981Z,12.20
2022-08-05T03:06:55.283Z,9.00
2022-08-05T03:08:42.748Z,8.80
2022-08-05T03:11:54.611Z,8.50
2022-08-05T03:14:13.492Z,12.43
2022-08-05T03:16:41.423Z,8.25
2022-08-05T03:19:17.270Z,14.57
2022-08-05T03:21:55.755Z,11.57
2022-08-05T03:24:30.142Z,10.27
2022-08-05T03:26:59.325Z,10.05
2022-08-05T03:29:45.087Z,7.45
2022-08-05T03:32:14.398Z,8.02
2022-08-05T03:34:42.464Z,7.75
2022-08-05T03:37:22.759Z,12.43
2022-08-05T03:39:58.936Z,10.68
2022-08-05T03:42:29.059Z,8.93
2022-08-05T03:44:56.004Z,10.52
2022-08-05T03:47:24.603Z,11.52
2022-08-05T03:49:52.408Z,9.02
2022-08-05T03:52:37.822Z,9.05
2022-08-05T03:56:01.855Z,7.25
2022-08-05T04:00:51.493Z,7.03
2022-08-05T04:03:28.370Z,8.43
2022-08-05T04:05:57.915Z,9.30
2022-08-05T04:08:35.174Z,12.45
2022-08-05T04:11:04.875Z,9.63
2022-08-05T04:13:49.798Z,9.52
2022-08-05T04:16:25.168Z,9.40
2022-08-05T04:18:57.913Z,8.70
2022-08-05T04:22:10.359Z,9.50
2022-08-05T04:24:19.516Z,10.60
2022-08-05T04:26:50.072Z,12.35
2022-08-05T04:29:17.053Z,9.43
2022-08-05T04:31:43.817Z,8.93
2022-08-05T04:34:31.846Z,8.63
2022-08-05T04:36:58.285Z,8.32
2022-08-05T04:39:27.533Z,8.25
2022-08-05T04:41:55.436Z,9.82
2022-08-05T04:44:29.294Z,8.68
2022-08-05T04:47:08.878Z,9.23
2022-08-05T04:50:01.917Z,7.65
2022-08-05T04:52:23.163Z,7.05
2022-08-05T04:54:54.701Z,7.90
2022-08-05T04:57:29.303Z,5.75
2022-08-05T04:59:58.596Z,5.35
2022-08-05T05:02:41.589Z,6.68
2022-08-05T05:05:26.209Z,6.97
2022-08-05T05:08:02.113Z,5.68
2022-08-05T05:10:37.584Z,5.30
2022-08-05T05:13:04.667Z,6.22
2022-08-05T05:15:54.356Z,7.20
2022-08-05T05:18:31.451Z,6.97
2022-08-05T05:21:02.203Z,8.00
2022-08-05T05:23:39.213Z,5.25
2022-08-05T05:26:17.911Z,5.10
2022-08-05T05:28:45.034Z,8.43
2022-08-05T05:31:12.868Z,6.30
2022-08-05T05:33:57.045Z,8.73
2022-08-05T05:36:28.626Z,6.63
2022-08-05T05:38:57.265Z,8.13
2022-08-05T05:41:24.655Z,8.00
2022-08-05T05:43:57.478Z,5.13
2022-08-05T05:46:26.518Z,5.80
2022-08-05T05:48:53.644Z,7.22
2022-08-05T05:51:27.895Z,6.50
2022-08-05T05:53:58.942Z,6.78
2022-08-05T05:56:31.892Z,4.65
2022-08-05T05:59:03.467Z,4.90
2022-08-05T06:01:37.833Z,8.13
2022-08-05T06:04:12.162Z,5.43
2022-08-05T06:06:47.469Z,5.75
2022-08-05T06:09:16.674Z,6.07
2022-08-05T06:11:59.390Z,7.28
2022-08-05T06:14:29.352Z,5.60
2022-08-05T06:16:57.153Z,7.03
2022-08-05T06:19:32.897Z,6.00
2022-08-05T06:22:02.622Z,4.90
2022-08-05T06:24:30.178Z,5.63
2022-08-05T06:26:58.249Z,5.72
2022-08-05T06:29:49.048Z,7.03
2022-08-05T06:32:26.091Z,3.80
2022-08-05T06:34:57.369Z,5.38
2022-08-05T06:37:58.403Z,5.03
2022-08-05T06:40:21.229Z,5.60
2022-08-05T06:42:52.335Z,7.57
2022-08-05T06:45:44.885Z,4.80
2022-08-05T06:48:36.147Z,7.15
2022-08-05T06:50:55.421Z,6.97
2022-08-05T06:53:28.195Z,5.40
2022-08-05T06:55:57.102Z,6.45
2022-08-05T06:58:29.904Z,5.13
2022-08-05T07:01:02.813Z,6.32
2022-08-05T07:03:32.701Z,3.42
2022-08-05T07:06:05.811Z,3.55
2022-08-05T07:08:43.217Z,3.70
2022-08-05T07:11:15.895Z,3.28
2022-08-05T07:14:02.069Z,3.75
2022-08-05T07:18:02.208Z,2.53
2022-08-05T07:22:28.233Z,2.05
2022-08-05T07:25:23.091Z,2.97
2022-08-05T07:27:57.228Z,1.75
2022-08-05T07:30:33.675Z,3.20
2022-08-05T07:33:09.206Z,1.83
2022-08-05T07:36:01.750Z,2.58
2022-08-05T07:38:33.890Z,2.40
2022-08-05T07:42:13.564Z,1.83
2022-08-05T07:44:14.368Z,2.58
2022-08-05T07:46:48.246Z,2.72
2022-08-05T07:51:53.863Z,2.78
2022-08-05T07:54:31.699Z,2.90
2022-08-05T07:57:13.903Z,3.00
2022-08-05T07:59:51.858Z,2.28
2022-08-05T08:02:26.587Z,1.73
2022-08-05T08:04:58.016Z,2.45
2022-08-05T08:07:25.138Z,2.55
2022-08-05T08:09:55.589Z,3.10
2022-08-05T08:12:37.053Z,2.47
2022-08-05T08:15:09.696Z,2.67
2022-08-05T08:17:52.796Z,3.17
2022-08-05T08:20:45.403Z,2.30
2022-08-05T08:24:03.403Z,2.55
2022-08-05T08:26:02.465Z,2.67
2022-08-05T08:28:36.239Z,3.90
2022-08-05T08:31:09.694Z,3.05
2022-08-05T08:33:41.934Z,3.10
2022-08-05T08:36:38.198Z,2.33
2022-08-05T08:38:57.913Z,3.22
2022-08-05T08:41:52.459Z,1.50
2022-08-05T08:45:18.684Z,2.13
2022-08-05T08:47:46.782Z,1.02
2022-08-05T08:50:22.203Z,3.65
2022-08-05T08:52:47.395Z,1.98
2022-08-05T08:56:01.770Z,2.38
2022-08-05T08:58:06.767Z,1.83
2022-08-05T09:00:35.798Z,2.22
2022-08-05T09:03:05.835Z,2.17
2022-08-05T09:05:38.847Z,2.75
2022-08-05T09:08:26.685Z,2.13
2022-08-05T09:10:54.620Z,3.38
2022-08-05T09:13:21.649Z,3.22
2022-08-05T09:15:51.120Z,4.10
2022-08-05T09:18:18.249Z,2.17
2022-08-05T09:20:45.871Z,3.17
2022-08-05T09:23:21.964Z,2.13
2022-08-05T09:26:06.174Z,2.50
2022-08-05T09:28:35.271Z,3.90
2022-08-05T09:31:22.299Z,1.17
2022-08-05T09:34:02.614Z,1.60
2022-08-05T09:36:45.911Z,2.08
2022-08-05T09:39:24.490Z,2.63
2022-08-05T09:42:08.580Z,4.50
2022-08-05T09:44:42.984Z,4.70
2022-08-05T09:47:22.068Z,2.38
2022-08-05T09:50:01.123Z,3.53
2022-08-05T09:52:29.030Z,2.88
2022-08-05T09:55:55.654Z,1.80
2022-08-05T09:57:54.417Z,2.45
2022-08-05T10:00:25.995Z,3.25
2022-08-05T10:02:57.989Z,1.25
2022-08-05T10:05:27.851Z,3.05
2022-08-05T10:08:35.463Z,6.57
2022-08-05T10:10:55.855Z,2.47
2022-08-05T10:13:27.528Z,1.92
2022-08-05T10:16:41.655Z,5.53
2022-08-05T10:19:11.858Z,2.75
2022-08-05T10:21:40.937Z,5.20
2022-08-05T10:26:51.337Z,2.95
2022-08-05T10:29:23.430Z,2.95
2022-08-05T10:32:53.398Z,1.65
2022-08-05T10:35:00.993Z,0.98
2022-08-05T10:37:40.031Z,1.42
2022-08-05T10:40:33.240Z,1.40
2022-08-05T10:43:24.572Z,2.05
2022-08-05T10:46:08.480Z,2.17
2022-08-05T10:48:52.581Z,2.65
2022-08-05T10:51:28.790Z,1.67
2022-08-05T10:54:05.670Z,2.00
2022-08-05T10:56:45.536Z,2.00
2022-08-05T11:00:04.211Z,1.65
2022-08-05T11:02:14.803Z,2.28
2022-08-05T11:04:57.413Z,1.55
2022-08-05T11:07:32.959Z,1.92
2022-08-05T11:10:27.661Z,1.45
2022-08-05T11:12:57.504Z,3.40
2022-08-05T11:15:59.513Z,2.50
2022-08-05T11:18:32.595Z,4.00
2022-08-05T11:21:02.785Z,1.33
2022-08-05T11:24:04.618Z,2.03
2022-08-05T11:26:40.893Z,1.95
2022-08-05T11:29:42.613Z,2.60
2022-08-05T11:32:27.385Z,1.77
2022-08-05T11:34:55.270Z,3.03
2022-08-05T11:38:27.961Z,2.47
2022-08-05T11:41:13.874Z,3.97
2022-08-05T11:44:07.055Z,2.30
2022-08-05T11:47:09.509Z,2.50
2022-08-05T11:49:39.416Z,1.83
2022-08-05T11:52:11.353Z,2.30
2022-08-05T11:54:40.605Z,2.63
2022-08-05T11:57:25.364Z,3.03
2022-08-05T11:59:54.477Z,2.15
2022-08-05T12:02:31.275Z,3.88
2022-08-05T12:05:00.983Z,3.08
2022-08-05T12:08:08.694Z,5.95
2022-08-05T12:10:23.082Z,3.17
2022-08-05T12:12:59.287Z,3.17
2022-08-05T12:15:38.284Z,4.00
2022-08-05T12:18:10.515Z,7.43
2022-08-05T12:20:38.697Z,2.90
2022-08-05T12:23:12.457Z,3.63
2022-08-05T12:25:53.576Z,3.25
2022-08-05T12:28:33.745Z,2.83
2022-08-05T12:31:02.083Z,4.15
2022-08-05T12:33:36.545Z,3.65
2022-08-05T12:36:08.536Z,4.05
2022-08-05T12:38:40.367Z,2.67
2022-08-05T12:41:17.413Z,1.63
2022-08-05T12:43:57.873Z,3.72
2022-08-05T12:46:31.261Z,1.85
2022-08-05T12:49:15.372Z,4.22
2022-08-05T12:52:12.569Z,4.55
2022-08-05T12:54:41.303Z,5.78
2022-08-05T12:57:10.774Z,3.75
2022-08-05T13:01:58.235Z,3.28
2022-08-05T13:02:41.432Z,3.85
2022-08-05T13:05:12.635Z,5.13
2022-08-05T13:07:59.929Z,3.53
2022-08-05T13:10:31.082Z,4.13
2022-08-05T13:12:58.425Z,3.33
2022-08-05T13:15:35.887Z,2.45
2022-08-05T13:18:08.535Z,4.10
2022-08-05T13:20:35.852Z,3.58
2022-08-05T13:23:07.605Z,4.05
2022-08-05T13:25:51.855Z,2.22
2022-08-05T13:30:48.983Z,4.10
2022-08-05T13:34:23.605Z,4.38
2022-08-05T13:36:07.053Z,4.43
2022-08-05T13:41:11.504Z,2.45
2022-08-05T13:43:43.322Z,1.02
2022-08-05T13:46:11.679Z,3.42
2022-08-05T13:48:57.769Z,2.88
2022-08-05T13:51:29.606Z,2.58
2022-08-05T13:54:03.412Z,1.10
2022-08-05T13:56:38.991Z,1.88
2022-08-05T13:59:19.633Z,1.75
2022-08-05T14:01:57.737Z,5.00
2022-08-05T14:04:49.843Z,1.15
2022-08-05T14:07:25.604Z,2.70
2022-08-05T14:10:08.446Z,3.78
2022-08-05T14:12:36.062Z,3.55
2022-08-05T14:15:05.922Z,3.38
2022-08-05T14:17:50.567Z,3.10
2022-08-05T14:20:22.131Z,2.05
2022-08-05T14:22:54.777Z,2.72
2022-08-05T14:25:27.966Z,14.60
2022-08-05T14:27:55.675Z,4.07
2022-08-05T14:30:22.845Z,3.53
2022-08-05T14:32:53.622Z,13.57
2022-08-05T14:35:22.894Z,5.10
2022-08-05T14:40:24.190Z,2.42
2022-08-05T14:42:52.104Z,4.28
2022-08-05T14:45:19.387Z,6.22
2022-08-05T14:48:03.393Z,3.28
2022-08-05T14:50:33.299Z,4.35
2022-08-05T14:53:06.833Z,3.75
2022-08-05T14:55:39.154Z,2.58
2022-08-05T14:58:11.418Z,3.25
2022-08-05T15:00:58.274Z,4.22
2022-08-05T15:03:33.278Z,5.63
2022-08-05T15:06:06.859Z,3.58
2022-08-05T15:09:01.226Z,5.50
2022-08-05T15:11:23.569Z,1.27
2022-08-05T15:16:37.512Z,7.53
2022-08-05T15:19:14.591Z,2.80
2022-08-05T15:21:51.381Z,2.70
2022-08-05T15:24:18.595Z,3.95
2022-08-05T15:26:46.703Z,3.70
2022-08-05T15:29:15.378Z,2.33
2022-08-05T15:31:42.159Z,4.05
2022-08-05T15:34:31.381Z,3.13
2022-08-05T15:36:58.144Z,3.67
2022-08-05T15:41:00.019Z,2.55
2022-08-05T15:45:07.248Z,4.00
2022-08-05T15:47:40.579Z,2.17
2022-08-05T15:50:09.388Z,3.53
2022-08-05T15:52:52.782Z,3.20
2022-08-05T15:55:24.954Z,2.95
2022-08-05T15:58:08.699Z,3.05
2022-08-05T16:00:50.216Z,3.67
2022-08-05T16:03:22.857Z,3.50
2022-08-05T16:05:52.799Z,5.82
2022-08-05T16:08:22.871Z,5.68
2022-08-05T16:10:59.613Z,3.30
2022-08-05T16:13:34.382Z,3.85
2022-08-05T16:16:02.130Z,2.42
2022-08-05T16:18:32.936Z,6.07
2022-08-05T16:21:04.289Z,5.22
2022-08-05T16:23:54.578Z,5.10
2022-08-05T16:26:26.518Z,3.95
2022-08-05T16:28:54.571Z,2.95
2022-08-05T16:31:21.881Z,2.88
2022-08-05T16:33:49.469Z,5.45
2022-08-05T16:36:20.491Z,4.60
2022-08-05T16:38:54.952Z,6.10
2022-08-05T16:42:12.653Z,3.55
2022-08-05T16:44:16.570Z,5.47
2022-08-05T16:46:55.636Z,4.55
2022-08-05T16:49:23.672Z,2.60
2022-08-05T16:51:54.909Z,2.97
2022-08-05T16:54:30.254Z,3.95
2022-08-05T16:56:58.724Z,2.75
2022-08-05T16:59:27.796Z,2.45
2022-08-05T17:01:57.947Z,4.03
2022-08-05T17:04:27.947Z,2.35
2022-08-05T17:07:03.467Z,3.13
2022-08-05T17:09:57.855Z,4.60
2022-08-05T17:12:51.539Z,2.97
2022-08-05T17:15:19.239Z,6.28
2022-08-05T17:17:54.789Z,6.93
2022-08-05T17:20:22.558Z,5.82
2022-08-05T17:22:55.426Z,2.95
2022-08-05T17:25:39.221Z,4.53
2022-08-05T17:28:07.773Z,6.75
2022-08-05T17:30:50.610Z,2.47
2022-08-05T17:33:19.947Z,5.60
2022-08-05T17:36:09.042Z,4.68
2022-08-05T17:38:34.043Z,4.53
2022-08-05T17:41:02.275Z,3.60
2022-08-05T17:43:50.633Z,3.90
2022-08-05T17:46:18.325Z,7.10
2022-08-05T17:48:45.154Z,8.18
2022-08-05T17:51:14.499Z,5.85
2022-08-05T17:53:50.701Z,4.88
2022-08-05T17:56:22.825Z,5.85
2022-08-05T17:58:50.073Z,5.70
2022-08-05T18:01:18.512Z,5.97
2022-08-05T18:03:55.937Z,4.32
2022-08-05T18:06:29.364Z,5.28
2022-08-05T18:08:58.069Z,5.65
2022-08-05T18:11:33.622Z,7.32
2022-08-05T18:14:07.157Z,5.05
2022-08-05T18:16:46.822Z,4.05
2022-08-05T18:19:22.471Z,3.28
2022-08-05T18:22:08.308Z,4.90
2022-08-05T18:24:37.867Z,5.00
2022-08-05T18:27:18.152Z,5.70
2022-08-05T18:29:54.133Z,7.82
2022-08-05T18:32:28.170Z,4.65
2022-08-05T18:34:55.595Z,4.40
2022-08-05T18:37:34.381Z,5.50
2022-08-05T18:40:33.724Z,8.70
2022-08-05T18:42:58.837Z,6.72
2022-08-05T18:45:41.732Z,5.05
2022-08-05T18:48:11.366Z,5.18
2022-08-05T18:50:57.209Z,6.22
2022-08-05T18:53:50.241Z,5.78
2022-08-05T18:56:17.364Z,5.40
2022-08-05T18:58:54.791Z,7.25
2022-08-05T19:01:33.444Z,3.78
2022-08-05T19:04:14.722Z,5.00
2022-08-05T19:06:51.469Z,4.43
2022-08-05T19:09:21.116Z,5.40
2022-08-05T19:12:00.015Z,5.25
2022-08-05T19:14:52.176Z,8.32
2022-08-05T19:17:15.165Z,4.05
2022-08-05T19:19:47.046Z,4.32
2022-08-05T19:22:17.254Z,6.18
2022-08-05T19:25:00.542Z,4.43
2022-08-05T19:27:30.527Z,3.85
2022-08-05T19:29:57.733Z,8.05
2022-08-05T19:32:26.113Z,9.70
2022-08-05T19:34:57.960Z,9.80
2022-08-05T19:37:29.627Z,6.97
2022-08-05T19:40:02.477Z,7.07
2022-08-05T19:42:36.309Z,6.72
2022-08-05T19:45:07.031Z,6.68
2022-08-05T19:47:37.500Z,10.20
2022-08-05T19:50:07.563Z,7.90
2022-08-05T19:52:37.301Z,4.93
2022-08-05T19:55:06.842Z,5.57
2022-08-05T19:57:47.551Z,5.25
2022-08-05T20:00:22.874Z,5.90
2022-08-05T20:02:49.749Z,7.57
2022-08-05T20:05:24.360Z,6.55
2022-08-05T20:07:56.331Z,7.45
2022-08-05T20:10:26.211Z,7.15
2022-08-05T20:12:53.012Z,4.50
2022-08-05T20:15:48.516Z,4.43
2022-08-05T20:18:10.893Z,10.27
2022-08-05T20:20:56.740Z,4.65
2022-08-05T20:23:40.206Z,6.18
2022-08-05T20:26:15.437Z,8.25
2022-08-05T20:28:48.552Z,5.35
2022-08-05T20:31:16.505Z,8.60
2022-08-05T20:33:44.816Z,4.60
2022-08-05T20:36:12.335Z,5.72
2022-08-05T20:38:54.574Z,3.63
2022-08-05T20:41:27.378Z,4.45
2022-08-05T20:44:17.534Z,5.50
2022-08-05T20:46:48.823Z,5.53
2022-08-05T20:49:18.444Z,5.47
2022-08-05T20:51:53.384Z,6.00
2022-08-05T20:54:25.196Z,5.70
2022-08-05T20:56:52.974Z,6.50
2022-08-05T20:59:27.046Z,5.60
2022-08-05T21:02:07.489Z,4.38
2022-08-05T21:04:36.242Z,4.75
2022-08-05T21:07:04.860Z,3.88
2022-08-05T21:09:35.255Z,10.90
2022-08-05T21:12:10.128Z,4.50
2022-08-05T21:14:38.510Z,4.85
2022-08-05T21:17:06.051Z,7.00
2022-08-05T21:19:46.790Z,5.68
2022-08-05T21:22:21.760Z,5.47
2022-08-05T21:24:51.719Z,6.85
2022-08-05T21:27:25.209Z,5.32
2022-08-05T21:29:55.810Z,5.35
2022-08-05T21:32:27.704Z,8.25
2022-08-05T21:35:18.171Z,7.95
2022-08-05T21:37:52.683Z,6.10
2022-08-05T21:40:20.617Z,6.57
2022-08-05T21:42:47.611Z,4.53
2022-08-05T21:45:24.782Z,5.10
2022-08-05T21:47:56.671Z,4.78
2022-08-05T21:50:24.923Z,4.47
2022-08-05T21:52:52.212Z,6.15
2022-08-05T21:55:43.040Z,6.40
2022-08-05T21:58:07.154Z,8.77
2022-08-05T22:00:37.476Z,5.95
2022-08-05T22:03:07.252Z,8.20
2022-08-05T22:05:48.603Z,6.20
2022-08-05T22:08:21.977Z,6.78
2022-08-05T22:10:51.601Z,7.72
2022-08-05T22:14:19.895Z,7.38
2022-08-05T22:16:15.677Z,5.25
2022-08-05T22:18:54.218Z,7.88
2022-08-05T22:21:26.060Z,7.28
2022-08-05T22:24:13.024Z,4.03
2022-08-05T22:27:18.087Z,4.88
2022-08-05T22:29:44.817Z,8.77
2022-08-05T22:32:12.771Z,8.60
2022-08-05T22:34:44.383Z,5.70
2022-08-05T22:37:12.677Z,5.93
2022-08-05T22:39:39.588Z,4.70
2022-08-05T22:42:12.502Z,9.13
2022-08-05T22:44:53.575Z,4.43
2022-08-05T22:47:29.133Z,4.40
2022-08-05T22:50:19.733Z,4.88
2022-08-05T22:52:43.987Z,6.00
2022-08-05T22:55:19.257Z,5.45
2022-08-05T22:57:47.383Z,6.65
2022-08-05T23:00:18.475Z,4.75
2022-08-05T23:02:48.190Z,4.55
2022-08-05T23:05:15.907Z,6.45
2022-08-05T23:07:48.318Z,6.22
2022-08-05T23:10:19.496Z,8.07
2022-08-05T23:12:51.280Z,5.22
2022-08-05T23:15:21.380Z,7.55
2022-08-05T23:18:01.106Z,6.95
2022-08-05T23:20:30.236Z,5.93
2022-08-05T23:22:58.473Z,8.70
2022-08-05T23:25:51.862Z,8.55
2022-08-05T23:28:13.253Z,5.60
2022-08-05T23:30:53.597Z,7.38
2022-08-05T23:33:25.557Z,9.13
2022-08-05T23:35:56.034Z,6.38
2022-08-05T23:38:24.268Z,7.80
2022-08-05T23:40:52.654Z,6.40
2022-08-05T23:43:25.320Z,9.05
2022-08-05T23:46:21.163Z,8.27
2022-08-05T23:49:00.658Z,8.05
2022-08-05T23:51:53.364Z,6.03
2022-08-05T23:54:30.245Z,4.75
2022-08-05T23:57:04.922Z,7.82
